Latest Weather Observations for Mount Crawford

IDS60901

Issued at 10:11 am CDT Tuesday 17 October 2017 (issued every 10 minutes, with the page automatically refreshed every 10 minutes)

About weather observations | Map of Adelaide area stations | Latest observations for Adelaide area | Other Formats
Station Details ID: 023878 Name: MOUNT CRAWFORD AWS Lat: -34.73 Lon: 138.93 Height: 525.0 m
Data from the previous 72 hours. | See also: Recent months at Mount Crawford
Date/Time
CDT
Temp
°C
App
Temp
°C
Dew
Point
°C
Rel
Hum
%
Delta-T
°C
Wind Press
QNH
hPa
Press
MSL
hPa
Rain since
9am
mm
Dir  Spd
km/h
Gust
km/h
Spd
kts
Gust
kts
17/10:00am 23.7 18.4 6.9 34 8.9 N 24 33 13 18 1019.4 1018.8 0.0
17/09:30am 23.1 16.3 6.8 35 8.6 NNE 32 43 17 23 1019.5 1018.9 0.0
17/09:00am 22.9 16.0 6.6 35 8.6 NNE 32 43 17 23 1019.5 1018.9 0.0
17/08:30am 22.2 15.8 6.8 37 8.1 NNE 30 37 16 20 1019.3 1018.6 0.0
17/08:00am 21.3 14.8 6.4 38 7.7 NNE 30 37 16 20 1019.0 1018.4 0.0
17/07:30am 20.5 12.9 5.7 38 7.5 NNE 35 44 19 24 1018.7 1018.1 0.0
17/07:00am 20.0 12.1 6.0 40 7.2 NNE 37 50 20 27 1018.4 1017.8 0.0
17/06:34am 20.2 13.1 5.4 38 7.5 NE 32 50 17 27 1018.3 1017.7 0.0
17/06:30am 19.7 12.6 5.4 39 7.2 NE 32 43 17 23 1018.3 1017.7 0.0
17/06:00am 21.0 13.6 5.0 35 8.1 NNE 33 43 18 23 1017.9 1017.3 0.0
17/05:30am 21.5 13.8 5.4 35 8.2 NNE 35 46 19 25 1017.8 1017.2 0.0
17/05:00am 21.3 13.7 5.6 36 8.0 NNE 35 46 19 25 1017.6 1016.9 0.0
17/04:30am 21.5 13.9 5.8 36 8.1 NNE 35 44 19 24 1017.6 1016.9 0.0
17/04:00am 21.2 13.6 5.9 37 7.9 NNE 35 44 19 24 1017.7 1017.0 0.0
17/03:30am 21.4 14.2 6.1 37 7.9 NNE 33 43 18 23 1017.8 1017.2 0.0
17/03:00am 21.7 14.6 6.4 37 7.9 NNE 33 43 18 23 1017.9 1017.3 0.0
17/02:30am 21.6 15.3 5.9 36 8.1 NNE 28 37 15 20 1018.1 1017.5 0.0
17/02:00am 22.1 14.8 5.5 34 8.5 NE 33 43 18 23 1018.3 1017.7 0.0
17/01:30am 22.0 15.0 5.8 35 8.3 NE 32 44 17 24 1018.5 1017.9 0.0
17/01:00am 21.5 14.3 5.8 36 8.1 NE 33 43 18 23 1018.8 1018.2 0.0
17/12:30am 21.0 14.1 6.5 39 7.5 NE 32 44 17 24 1019.0 1018.4 0.0
17/12:00am 21.7 14.6 6.4 37 7.9 NE 33 39 18 21 1019.4 1018.8 0.0
 
Date/Time
CDT
Temp
°C
App
Temp
°C
Dew
Point
°C
Rel
Hum
%
Delta-T
°C
Wind Press
QNH
hPa
Press
MSL
hPa
Rain since
9am
mm
Dir  Spd
km/h
Gust
km/h
Spd
kts
Gust
kts
16/11:30pm 22.0 15.1 6.3 36 8.2 ENE 32 44 17 24 1019.6 1019.0 0.0
16/11:00pm 21.6 15.4 6.3 37 7.9 ENE 28 32 15 17 1019.8 1019.2 0.0
16/10:30pm 22.3 16.5 6.1 35 8.4 ENE 26 32 14 17 1019.7 1019.1 0.0
16/10:00pm 22.3 17.1 5.7 34 8.6 ENE 22 28 12 15 1019.7 1019.1 0.0
16/09:30pm 22.8 18.2 5.7 33 8.8 E 19 24 10 13 1019.7 1019.1 0.0
16/09:00pm 23.8 19.9 5.2 30 9.6 E 15 19 8 10 1019.5 1018.9 0.0
16/08:30pm 23.7 20.3 6.0 32 9.2 E 13 15 7 8 1019.2 1018.5 0.0
16/08:00pm 24.4 21.3 5.7 30 9.8 E 11 13 6 7 1019.0 1018.4 0.0
16/07:30pm 24.2 21.1 5.5 30 9.7 ENE 11 13 6 7 1018.8 1018.2 0.0
16/07:00pm 24.8 21.8 6.1 30 9.9 ENE 11 13 6 7 1018.7 1018.1 0.0
16/06:30pm 25.0 21.8 6.7 31 9.7 NE 13 17 7 9 1018.7 1018.1 0.0
16/06:00pm 25.8 21.3 5.9 28 10.5 NE 19 28 10 15 1018.6 1018.0 0.0
16/05:30pm 26.2 23.1 7.3 30 10.2 ENE 13 19 7 10 1018.6 1018.0 0.0
16/05:00pm 26.3 22.2 7.8 31 10.1 NE 19 24 10 13 1018.5 1017.9 0.0
16/04:30pm 26.4 22.4 8.4 32 9.9 NE 19 30 10 16 1018.6 1018.0 0.0
16/04:00pm 26.2 21.4 8.7 33 9.7 ENE 24 33 13 18 1018.8 1018.2 0.0
16/03:30pm 26.1 21.3 9.0 34 9.5 ENE 24 39 13 21 1019.2 1018.5 0.0
16/03:00pm 26.3 22.6 10.0 36 9.2 ENE 20 32 11 17 1019.6 1019.0 0.0
16/02:30pm 25.7 22.2 8.7 34 9.4 ENE 17 32 9 17 1019.9 1019.3 0.0
16/02:00pm 25.6 20.9 9.4 36 9.1 ENE 24 33 13 18 1020.1 1019.5 0.0
16/01:30pm 25.0 20.4 8.1 34 9.2 NE 22 33 12 18 1020.3 1019.7 0.0
16/01:00pm 25.1 20.8 10.6 40 8.3 NE 24 32 13 17 1020.4 1019.8 0.0
16/12:30pm 24.7 20.6 11.3 43 7.7 NE 24 33 13 18 1020.7 1020.1 0.0
16/12:00pm 24.5 19.5 9.6 39 8.3 NE 26 33 14 18 1021.0 1020.5 0.0
16/11:30am 24.2 19.6 11.2 44 7.4 ENE 26 35 14 19 1021.4 1020.8 0.0
16/11:00am 23.3 18.9 11.7 48 6.7 NE 26 33 14 18 1021.7 1021.1 0.0
16/10:30am 22.6 18.6 11.7 50 6.2 NE 24 33 13 18 1021.9 1021.3 0.0
16/10:00am 21.7 18.1 12.0 54 5.6 NE 22 30 12 16 1022.0 1021.4 0.0
16/09:30am 20.3 15.8 10.1 52 5.6 NE 24 33 13 18 1022.0 1021.4 0.0
16/09:00am 19.2 14.8 10.5 57 4.8 ENE 24 32 13 17 1021.9 1021.3 0.0
16/08:30am 17.4 13.2 9.6 60 4.2 ENE 22 28 12 15 1021.9 1021.3 0.0
16/08:00am 16.4 11.7 9.1 62 3.9 ENE 24 33 13 18 1021.7 1021.1 0.0
16/07:30am 15.9 10.3 8.6 62 3.8 ENE 28 33 15 18 1021.5 1020.9 0.0
16/07:00am 15.1 9.3 7.9 62 3.7 ENE 28 35 15 19 1021.2 1020.6 0.0
16/06:30am 14.1 8.2 7.4 64 3.4 ENE 28 37 15 20 1020.8 1020.2 0.0
16/06:00am 14.3 8.0 7.6 64 3.4 ENE 30 35 16 19 1020.6 1020.0 0.0
16/05:30am 14.3 8.0 7.4 63 3.5 ENE 30 35 16 19 1020.4 1019.8 0.0
16/05:00am 14.4 8.4 7.2 62 3.6 E 28 35 15 19 1020.2 1019.6 0.0
16/04:30am 13.9 8.5 7.9 67 3.0 E 26 30 14 16 1020.4 1019.8 0.0
16/04:00am 13.7 8.9 8.7 72 2.6 E 24 28 13 15 1020.6 1020.0 0.0
16/03:30am 13.9 8.7 8.7 71 2.7 E 26 30 14 16 1020.8 1020.2 0.0
16/03:00am 13.6 8.5 9.3 75 2.2 ESE 26 30 14 16 1020.8 1020.2 0.0
16/02:30am 13.1 7.9 10.3 83 1.5 ESE 28 32 15 17 1021.0 1020.5 0.0
16/02:00am 13.2 8.5 10.6 84 1.4 ESE 26 32 14 17 1021.3 1020.7 0.0
16/01:30am 13.5 8.8 10.7 83 1.5 SE 26 33 14 18 1021.7 1021.1 0.0
16/01:00am 13.7 8.5 10.1 79 1.9 SE 28 35 15 19 1021.8 1021.2 0.0
16/12:30am 13.8 8.4 9.6 76 2.2 SE 28 37 15 20 1022.0 1021.4 0.0
16/12:00am 13.8 8.4 9.6 76 2.2 SE 28 37 15 20 1022.1 1021.5 0.0
 
Date/Time
CDT
Temp
°C
App
Temp
°C
Dew
Point
°C
Rel
Hum
%
Delta-T
°C
Wind Press
QNH
hPa
Press
MSL
hPa
Rain since
9am
mm
Dir  Spd
km/h
Gust
km/h
Spd
kts
Gust
kts
15/11:30pm 13.7 8.1 10.3 80 1.8 SE 30 39 16 21 1022.1 1021.5 0.0
15/11:00pm 13.0 7.9 10.5 85 1.3 SSE 28 33 15 18 1022.0 1021.4 0.0
15/10:30pm 13.4 8.3 10.6 83 1.5 SE 28 37 15 20 1021.7 1021.1 0.0
15/10:00pm 13.2 7.7 10.4 83 1.5 SE 30 43 16 23 1021.5 1020.9 0.0
15/09:30pm 12.9 7.2 9.9 82 1.6 SE 30 37 16 20 1021.5 1020.9 0.0
15/09:00pm 12.7 7.4 9.9 83 1.5 SE 28 39 15 21 1021.0 1020.5 0.0
15/08:30pm 12.6 7.2 9.6 82 1.6 SE 28 35 15 19 1020.9 1020.3 0.0
15/08:00pm 13.0 7.2 9.4 79 1.9 SE 30 37 16 20 1020.7 1020.1 0.0
15/07:30pm 13.7 8.7 9.6 76 2.2 SSE 26 37 14 20 1020.7 1020.1 0.0
15/07:00pm 14.8 10.1 9.4 70 2.9 SSE 24 33 13 18 1020.6 1020.0 0.0
15/06:30pm 16.1 11.5 9.5 65 3.5 SE 24 35 13 19 1020.5 1019.9 0.0
15/06:00pm 18.0 13.2 8.8 55 4.9 SE 24 35 13 19 1020.4 1019.8 0.0
15/05:30pm 19.8 14.1 4.7 37 7.5 ESE 24 39 13 21 1020.3 1019.7 0.0
15/05:00pm 20.0 14.2 4.5 36 7.7 ESE 24 35 13 19 1020.5 1019.9 0.0
15/04:30pm 20.5 15.3 5.7 38 7.5 ESE 22 33 12 18 1020.5 1019.9 0.0
15/04:00pm 20.4 15.5 7.1 42 7.0 SE 22 35 12 19 1020.7 1020.1 0.0
15/03:30pm 20.0 15.7 7.1 43 6.7 SE 19 33 10 18 1020.9 1020.3 0.0
15/03:00pm 19.7 15.4 7.1 44 6.5 SE 19 32 10 17 1021.3 1020.7 0.0
15/02:30pm 19.9 16.2 9.5 51 5.7 ESE 19 30 10 16 1021.7 1021.1 0.0
15/02:00pm 19.3 16.3 9.2 52 5.5 ESE 15 28 8 15 1022.0 1021.4 0.0
15/01:30pm 18.3 14.4 9.6 57 4.7 ESE 20 28 11 15 1022.1 1021.5 0.0
15/01:00pm 17.8 14.0 9.9 60 4.3 E 20 30 11 16 1022.2 1021.6 0.0
15/12:30pm 17.4 14.1 10.8 65 3.6 ESE 19 28 10 15 1022.4 1021.8 0.0
15/12:00pm 17.3 14.4 10.9 66 3.5 E 17 22 9 12 1022.7 1022.2 0.0
15/11:30am 16.3 12.7 10.4 68 3.2 ESE 20 30 11 16 1022.9 1022.4 0.0
15/11:00am 16.8 13.5 11.7 72 2.8 E 20 32 11 17 1023.2 1022.6 0.0
15/10:30am 15.4 11.4 10.6 73 2.6 E 22 30 12 16 1023.5 1022.9 0.0
15/10:00am 14.8 10.8 10.4 75 2.4 E 22 32 12 17 1023.5 1022.9 0.0
15/09:30am 13.6 9.4 9.8 78 2.0 E 22 32 12 17 1023.4 1022.8 0.0
15/09:00am 12.8 10.1 12.8 100 0.0 E 19 28 10 15 1023.4 1022.8 0.2
15/08:30am 10.6 7.0 10.6 100 0.0 E 20 26 11 14 1023.3 1022.7 0.2
15/08:00am 9.6 5.4 9.6 100 0.0 E 22 28 12 15 1023.0 1022.5 0.2
15/07:30am 8.8 3.6 8.8 100 0.0 ESE 26 30 14 16 1022.8 1022.3 0.2
15/07:00am 8.2 2.5 8.2 100 0.0 ESE 28 32 15 17 1022.4 1021.8 0.2
15/06:30am 7.9 2.5 7.9 100 0.0 ESE 26 30 14 16 1022.2 1021.6 0.2
15/06:00am 8.1 2.7 8.1 100 0.0 ESE 26 32 14 17 1022.0 1021.4 0.2
15/05:30am 8.2 3.2 8.2 100 0.0 ESE 24 28 13 15 1021.9 1021.3 0.2
15/05:00am 8.3 3.4 8.3 100 0.0 ESE 24 28 13 15 1022.0 1021.4 0.2
15/04:30am 8.4 3.5 8.4 100 0.0 ESE 24 28 13 15 1022.1 1021.5 0.0
15/04:00am 8.5 3.6 8.5 100 0.0 ESE 24 30 13 16 1022.1 1021.5 0.0
15/03:30am 8.7 3.9 8.7 100 0.0 ESE 24 30 13 16 1022.3 1021.7 0.0
15/03:00am 9.1 5.1 9.1 100 0.0 ESE 20 32 11 17 1022.7 1022.2 0.0
15/02:30am 9.4 4.7 9.4 100 0.0 ESE 24 35 13 19 1022.8 1022.3 0.0
15/02:00am 9.5 2.8 9.5 100 0.0 ESE 35 48 19 26 1022.4 1021.8 0.0
15/01:30am 9.8 5.2 9.8 100 0.0 ESE 24 33 13 18 1023.3 1022.7 0.0
15/01:00am 9.8 4.9 9.8 100 0.0 ESE 26 39 14 21 1023.2 1022.6 0.0
15/12:30am 9.7 4.4 9.7 100 0.0 ESE 28 39 15 21 1023.3 1022.7 0.0
15/12:00am 9.5 3.7 9.5 100 0.0 ESE 30 41 16 22 1023.0 1022.5 0.0
 
Date/Time
CDT
Temp
°C
App
Temp
°C
Dew
Point
°C
Rel
Hum
%
Delta-T
°C
Wind Press
QNH
hPa
Press
MSL
hPa
Rain since
9am
mm
Dir  Spd
km/h
Gust
km/h
Spd
kts
Gust
kts
14/11:30pm 9.1 2.8 9.1 100 0.0 SE 32 43 17 23 1022.9 1022.4 0.0
14/11:17pm 9.1 2.8 9.1 100 0.0 SE 32 50 17 27 1022.8 1022.3 0.0
14/11:00pm 9.1 2.8 9.1 100 0.0 SE 32 46 17 25 1022.8 1022.3 0.0
14/10:30pm 9.0 2.7 9.0 100 0.0 SE 32 43 17 23 1022.8 1022.3 0.0
14/10:00pm 9.2 3.0 9.2 100 0.0 SE 32 39 17 21 1023.2 1022.6 0.0
14/09:30pm 9.3 3.5 9.3 100 0.0 SE 30 43 16 23 1023.2 1022.6 0.0
14/09:00pm 9.7 4.4 9.7 100 0.0 SE 28 41 15 22 1023.3 1022.7 0.0
14/08:30pm 10.2 5.3 10.1 99 0.1 SSE 26 39 14 21 1023.3 1022.7 0.0
14/08:00pm 11.1 6.4 10.8 98 0.2 SSE 26 35 14 19 1023.0 1022.5 0.0
14/07:30pm 12.4 8.8 10.6 89 1.0 SSE 20 28 11 15 1022.8 1022.3 0.0
14/07:00pm 14.0 10.5 10.2 78 2.0 SSE 19 32 10 17 1022.8 1022.3 0.0
14/06:30pm 15.3 11.0 9.4 68 3.1 SSE 22 30 12 16 1022.5 1021.9 0.0
14/06:00pm 16.5 12.0 8.7 60 4.1 S 22 32 12 17 1022.3 1021.7 0.0
14/05:30pm 17.6 13.4 7.4 51 5.3 SE 19 28 10 15 1022.3 1021.7 0.0
14/05:00pm 17.9 14.4 7.0 49 5.6 SSE 15 22 8 12 1022.3 1021.7 0.0
14/04:30pm 18.2 15.2 7.6 50 5.5 ESE 13 26 7 14 1022.4 1021.8 0.0
14/04:00pm 18.2 15.1 9.0 55 4.9 SE 15 24 8 13 1022.5 1021.9 0.0
14/03:30pm 17.9 14.9 7.6 51 5.3 ESE 13 24 7 13 1022.7 1022.2 0.0
14/03:00pm 17.5 13.9 8.4 55 4.8 ESE 17 24 9 13 1023.0 1022.5 0.0
14/02:30pm 17.1 13.5 8.5 57 4.5 SE 17 24 9 13 1023.5 1022.9 0.0
14/02:00pm 16.5 13.7 8.7 60 4.1 ESE 13 22 7 12 1023.8 1023.2 0.0
14/01:30pm 16.5 13.6 9.7 64 3.6 E 15 20 8 11 1024.0 1023.4 0.0
14/01:00pm 16.0 14.2 10.7 71 2.9 ESE 11 17 6 9 1024.3 1023.8 0.0
14/12:30pm 15.6 12.9 10.4 71 2.8 ESE 15 24 8 13 1024.5 1024.0 0.0
14/12:00pm 14.1 10.8 9.7 75 2.3 E 17 26 9 14 1024.6 1024.1 0.0
14/11:30am 13.5 9.7 9.7 78 2.0 ENE 20 28 11 15 1024.7 1024.2 0.0
14/11:00am 12.4 8.7 10.0 85 1.3 E 20 33 11 18 1024.8 1024.3 0.0
14/10:30am 13.0 9.9 12.1 94 0.5 E 20 32 11 17 1025.0 1024.5 0.0

Latest Capital City Observations: Canberra | Sydney | Melbourne | Brisbane | Adelaide | Perth | Hobart | Darwin

Other Formats:

Comma delimited format used in spreadsheet applications
http://www.bom.gov.au/fwo/IDS60901/IDS60901.94678.axf

JavaScript Object Notation format (JSON) in row-major order
http://www.bom.gov.au/fwo/IDS60901/IDS60901.94678.json